This is the latest recevied weather packets stored in our database for station/object WX4ET. If no packets are shown the sender has not sent any weather packets the latest 10 day(s).
| Time | Temp. | Humidity | Pressure | Rain* | Wind** | Luminosity | Snow |
|---|---|---|---|---|---|---|---|
| 1777521096 | 15° C | 81% | 1008.2 hPa | 0 mm | - | 0 W/m² | - |
| 1777520794 | 15.56° C | 81% | 1008.2 hPa | 0 mm | - | 0 W/m² | - |
| 1777520491 | 15.56° C | 80% | 1008.1 hPa | 0 mm | - | 0 W/m² | - |
| 1777520188 | 15° C | 81% | 1008.2 hPa | 0 mm | - | 0 W/m² | - |
| 1777519886 | 15.56° C | 82% | 1008 hPa | 0 mm | - | 0 W/m² | - |
| 1777519582 | 16.11° C | 79% | 1008 hPa | 0 mm | - | 0 W/m² | - |
| 1777519278 | 16.11° C | 78% | 1008.2 hPa | 0 mm | - | 0 W/m² | - |
| 1777518975 | 16.67° C | 76% | 1008.4 hPa | 0 mm | - | 0 W/m² | - |
| 1777518671 | 16.67° C | 78% | 1008.2 hPa | 0 mm | - | 0 W/m² | - |
| 1777518369 | 16.11° C | 80% | 1007.9 hPa | 0 mm | - | 0 W/m² | - |
| 1777518063 | 16.67° C | 81% | 1007.8 hPa | 0 mm | - | 0 W/m² | - |
| 1777517760 | 16.67° C | 78% | 1008.1 hPa | 0 mm | - | 0 W/m² | - |
| 1777517456 | 16.67° C | 78% | 1007.8 hPa | 0 mm | - | 0 W/m² | - |
| 1777517155 | 17.22° C | 78% | 1007.9 hPa | 0 mm | - | 0 W/m² | - |
| 1777516852 | 17.22° C | 78% | 1007.7 hPa | 0 mm | - | 0 W/m² | - |
| 1777516549 | 17.78° C | 78% | 1007.7 hPa | 0 mm | - | 0 W/m² | - |
| 1777516244 | 17.78° C | 78% | 1007.6 hPa | 0 mm | - | 0 W/m² | - |
| 1777515941 | 18.33° C | 77% | 1007.7 hPa | 0 mm | - | 0 W/m² | - |
| 1777515638 | 18.33° C | 77% | 1007.7 hPa | 0 mm | - | 0 W/m² | - |
| 1777515335 | 18.33° C | 77% | 1007.7 hPa | 0 mm | - | 0 W/m² | - |
| 1777515031 | 18.33° C | 77% | 1007.3 hPa | 0 mm | - | 0 W/m² | - |
| 1777514727 | 18.33° C | 76% | 1007.1 hPa | 0 mm | - | 0 W/m² | - |
| 1777514425 | 18.33° C | 76% | 1006.9 hPa | 0 mm | - | 0 W/m² | - |
| 1777514121 | 18.89° C | 76% | 1006.8 hPa | 0 mm | - | 0 W/m² | - |
| 1777513818 | 18.89° C | 76% | 1007 hPa | 0 mm | - | 0 W/m² | - |
* Rain latest hour (hover to see other rain measurements)
** Current wind speed in m/s (hover to see current wind gust speed)